createdAt,value
2023-04-18T00:00:35.947Z,9.9740
2023-04-18T00:01:38.274Z,10.0320
2023-04-18T00:02:40.752Z,10.2232
2023-04-18T00:03:43.223Z,10.2367
2023-04-18T00:04:45.544Z,10.3976
2023-04-18T00:05:47.580Z,9.9154
2023-04-18T00:06:49.922Z,9.8218
2023-04-18T00:07:52.249Z,9.4088
2023-04-18T00:08:54.615Z,9.6863
2023-04-18T00:09:56.926Z,10.3481
2023-04-18T00:10:59.243Z,10.5344
2023-04-18T00:12:01.593Z,10.0989
2023-04-18T00:13:03.933Z,10.3506
2023-04-18T00:14:06.252Z,10.4876
2023-04-18T00:15:08.588Z,10.7698
2023-04-18T00:16:10.958Z,10.0751
2023-04-18T00:17:13.313Z,9.9369
2023-04-18T00:18:15.599Z,10.3409
2023-04-18T00:19:17.924Z,10.6122
2023-04-18T00:20:20.257Z,10.1532
2023-04-18T00:21:22.679Z,9.9687
2023-04-18T00:22:24.931Z,9.7769
2023-04-18T00:23:27.284Z,10.0104
2023-04-18T00:24:29.593Z,10.1718
2023-04-18T00:25:31.928Z,10.0145
2023-04-18T00:26:34.260Z,10.3493
2023-04-18T00:27:36.599Z,10.3957
2023-04-18T00:28:38.937Z,10.2045
2023-04-18T00:29:41.269Z,10.0827
2023-04-18T00:30:43.643Z,9.6592
2023-04-18T00:31:45.995Z,10.0431
2023-04-18T00:32:48.323Z,10.4276
2023-04-18T00:33:50.666Z,10.3641
2023-04-18T00:34:52.953Z,10.2587
2023-04-18T00:35:55.281Z,10.0698
2023-04-18T00:36:57.624Z,9.8261
2023-04-18T00:37:59.952Z,9.8752
2023-04-18T00:39:02.338Z,9.5903
2023-04-18T00:40:04.625Z,9.4077
2023-04-18T00:41:06.960Z,9.6273
2023-04-18T00:42:09.298Z,9.9469
2023-04-18T00:43:11.624Z,10.4009
2023-04-18T00:44:14.226Z,10.6196
2023-04-18T00:45:16.290Z,10.9399
2023-04-18T00:46:18.672Z,10.8900
2023-04-18T00:47:20.981Z,11.1093
2023-04-18T00:48:23.303Z,11.3932
2023-04-18T00:49:25.647Z,11.4345
2023-04-18T00:50:27.981Z,11.2630
2023-04-18T00:51:30.295Z,10.7601
2023-04-18T00:52:32.629Z,10.1150
2023-04-18T00:53:34.962Z,10.2608
2023-04-18T00:54:37.310Z,10.8386
2023-04-18T00:55:39.641Z,11.1087
2023-04-18T00:56:41.977Z,11.1025
2023-04-18T00:57:44.310Z,11.0915
2023-04-18T00:58:46.646Z,11.2104
2023-04-18T00:59:49.002Z,11.1605
2023-04-18T01:00:51.315Z,10.7166
2023-04-18T01:01:53.833Z,10.9961
2023-04-18T01:02:56.174Z,11.4107
2023-04-18T01:03:58.409Z,11.7554
2023-04-18T01:05:00.732Z,11.4355
2023-04-18T01:06:03.021Z,10.5613
2023-04-18T01:07:05.341Z,10.4627
2023-04-18T01:08:07.672Z,10.6640
2023-04-18T01:09:10.006Z,10.3625
2023-04-18T01:10:12.355Z,10.9809
2023-04-18T01:11:14.686Z,11.0559
2023-04-18T01:12:17.031Z,10.4726
2023-04-18T01:13:19.347Z,10.5882
2023-04-18T01:14:21.680Z,10.7755
2023-04-18T01:15:24.085Z,10.5864
2023-04-18T01:16:26.441Z,10.2431
2023-04-18T01:17:28.724Z,10.6063
2023-04-18T01:18:31.010Z,10.8076
2023-04-18T01:19:33.341Z,10.7897
2023-04-18T01:20:35.681Z,10.5960
2023-04-18T01:21:37.996Z,11.1451
2023-04-18T01:22:40.374Z,11.5602
2023-04-18T01:23:42.670Z,11.3297
2023-04-18T01:24:45.007Z,11.1527
2023-04-18T01:25:47.373Z,11.3813
2023-04-18T01:26:49.670Z,11.7038
2023-04-18T01:27:52.027Z,11.9872
2023-04-18T01:28:54.344Z,11.9942
2023-04-18T01:29:56.684Z,11.9462
2023-04-18T01:30:59.049Z,11.8732
2023-04-18T01:32:01.400Z,12.0476
2023-04-18T01:33:03.739Z,11.3053
2023-04-18T01:34:06.043Z,11.3421
2023-04-18T01:35:08.376Z,11.4945
2023-04-18T01:36:10.707Z,11.2757
2023-04-18T01:37:13.034Z,11.3893
2023-04-18T01:38:15.384Z,11.9139
2023-04-18T01:39:17.706Z,12.1407
2023-04-18T01:40:20.043Z,11.5715
2023-04-18T01:41:22.376Z,11.4029
2023-04-18T01:42:24.717Z,11.0576
2023-04-18T01:43:27.211Z,10.8298
2023-04-18T01:44:29.440Z,11.4148
2023-04-18T01:45:31.721Z,11.7479
2023-04-18T01:46:34.054Z,11.5436
2023-04-18T01:47:36.407Z,11.5957
2023-04-18T01:48:38.709Z,11.3390
2023-04-18T01:49:41.060Z,11.2038
2023-04-18T01:50:43.403Z,10.9931
2023-04-18T01:51:45.735Z,10.9916
2023-04-18T01:52:48.052Z,11.1463
2023-04-18T01:53:50.382Z,11.2009
2023-04-18T01:54:52.728Z,10.8569
2023-04-18T01:55:55.062Z,10.6194
2023-04-18T01:56:57.413Z,10.3547
2023-04-18T01:57:59.734Z,10.2497
2023-04-18T01:59:02.073Z,10.4555
2023-04-18T02:00:04.436Z,10.7492
2023-04-18T02:01:06.773Z,11.1673
2023-04-18T02:02:09.168Z,11.0450
2023-04-18T02:03:11.511Z,10.5954
2023-04-18T02:04:14.124Z,10.4379
2023-04-18T02:05:16.084Z,10.8702
2023-04-18T02:06:18.404Z,10.9119
2023-04-18T02:07:20.780Z,10.6726
2023-04-18T02:08:23.065Z,10.3719
2023-04-18T02:09:25.409Z,10.5855
2023-04-18T02:10:27.735Z,10.3082
2023-04-18T02:11:30.077Z,10.7223
2023-04-18T02:12:32.424Z,10.7410
2023-04-18T02:13:34.750Z,10.8715
2023-04-18T02:14:37.109Z,11.2482
2023-04-18T02:15:39.417Z,10.6182
2023-04-18T02:16:41.782Z,10.5825
2023-04-18T02:17:44.188Z,10.5728
2023-04-18T02:18:46.422Z,10.6276
2023-04-18T02:19:48.756Z,10.9099
2023-04-18T02:20:51.097Z,10.5040
2023-04-18T02:21:53.424Z,10.9121
2023-04-18T02:22:55.770Z,11.3190
2023-04-18T02:23:58.095Z,10.7938
2023-04-18T02:25:00.439Z,10.2731
2023-04-18T02:26:02.808Z,9.9851
2023-04-18T02:27:05.101Z,10.2686
2023-04-18T02:28:07.436Z,10.3427
2023-04-18T02:29:09.779Z,10.6952
2023-04-18T02:30:12.106Z,10.5367
2023-04-18T02:31:14.560Z,11.0116
2023-04-18T02:32:16.778Z,10.6751
2023-04-18T02:33:19.123Z,10.2694
2023-04-18T02:34:21.431Z,10.6324
2023-04-18T02:35:23.765Z,11.1640
2023-04-18T02:36:26.121Z,11.4357
2023-04-18T02:37:28.437Z,11.1564
2023-04-18T02:38:30.792Z,11.3640
2023-04-18T02:39:33.113Z,11.6428
2023-04-18T02:40:35.450Z,10.8203
2023-04-18T02:41:37.787Z,10.8142
2023-04-18T02:42:40.116Z,11.2868
2023-04-18T02:43:42.500Z,10.6079
2023-04-18T02:44:44.799Z,10.2179
2023-04-18T02:45:47.142Z,10.0007
2023-04-18T02:46:49.471Z,9.7538
2023-04-18T02:47:56.027Z,10.2505
2023-04-18T02:48:54.147Z,10.7710
2023-04-18T02:49:56.486Z,10.9857
2023-04-18T02:50:58.826Z,10.9076
2023-04-18T02:52:01.258Z,11.2905
2023-04-18T02:53:03.508Z,11.5727
2023-04-18T02:54:05.833Z,11.5544
2023-04-18T02:55:08.163Z,10.9508
2023-04-18T02:56:10.499Z,10.9881
2023-04-18T02:57:12.841Z,11.3453
2023-04-18T02:58:15.191Z,10.7373
2023-04-18T02:59:17.506Z,10.4171
2023-04-18T03:00:19.845Z,10.3853
2023-04-18T03:01:22.213Z,10.7234
2023-04-18T03:02:24.560Z,10.6478
2023-04-18T03:03:26.921Z,10.6094
2023-04-18T03:04:29.224Z,10.8051
2023-04-18T03:05:31.528Z,11.0054
2023-04-18T03:06:33.869Z,11.3605
2023-04-18T03:07:36.265Z,11.5701
2023-04-18T03:08:38.553Z,11.4813
2023-04-18T03:09:40.884Z,11.0461
2023-04-18T03:10:43.207Z,11.0177
2023-04-18T03:11:45.558Z,10.4989
2023-04-18T03:12:47.887Z,10.2117
2023-04-18T03:13:50.238Z,10.8546
2023-04-18T03:14:52.565Z,11.1399
2023-04-18T03:15:54.896Z,10.8682
2023-04-18T03:16:57.239Z,11.1956
2023-04-18T03:17:59.616Z,11.5750
2023-04-18T03:19:01.915Z,11.6990
2023-04-18T03:20:04.236Z,11.6775
2023-04-18T03:21:06.570Z,11.8584
2023-04-18T03:22:08.906Z,11.8350
2023-04-18T03:23:11.242Z,11.7882
2023-04-18T03:24:13.768Z,11.9626
2023-04-18T03:25:15.913Z,12.0345
2023-04-18T03:26:18.247Z,11.8849
2023-04-18T03:27:20.586Z,11.7734
2023-04-18T03:28:22.928Z,12.0310
2023-04-18T03:29:25.275Z,12.0947
2023-04-18T03:30:27.611Z,12.1984
2023-04-18T03:31:29.978Z,12.0111
2023-04-18T03:32:32.312Z,12.1392
2023-04-18T03:33:34.645Z,12.2136
2023-04-18T03:34:36.975Z,12.2230
2023-04-18T03:35:39.314Z,12.2298
2023-04-18T03:36:41.684Z,12.2218
2023-04-18T03:37:44.008Z,12.0390
2023-04-18T03:38:46.338Z,12.2159
2023-04-18T03:39:48.683Z,11.8301
2023-04-18T03:40:51.006Z,11.6738
2023-04-18T03:41:53.357Z,11.4238
2023-04-18T03:42:55.679Z,11.6954
2023-04-18T03:43:58.025Z,11.7562
2023-04-18T03:45:00.371Z,11.9437
2023-04-18T03:46:02.811Z,11.9410
2023-04-18T03:47:05.125Z,12.1134
2023-04-18T03:48:07.448Z,12.0836
2023-04-18T03:49:09.797Z,12.1049
2023-04-18T03:50:12.154Z,12.1781
2023-04-18T03:51:14.473Z,12.2703
2023-04-18T03:52:16.801Z,12.3171
2023-04-18T03:53:19.137Z,12.1458
2023-04-18T03:54:21.503Z,12.0501
2023-04-18T03:55:23.827Z,12.1898
2023-04-18T03:56:26.160Z,12.2569
2023-04-18T03:57:28.500Z,12.3093
2023-04-18T03:58:30.840Z,12.3216
2023-04-18T03:59:33.177Z,12.2335
2023-04-18T04:00:35.538Z,12.0515
2023-04-18T04:01:37.865Z,12.1688
2023-04-18T04:02:40.402Z,11.7303
2023-04-18T04:03:42.756Z,11.9984
2023-04-18T04:04:44.954Z,12.1150
2023-04-18T04:05:47.243Z,11.8513
2023-04-18T04:06:49.554Z,11.9735
2023-04-18T04:07:51.900Z,11.8726
2023-04-18T04:08:54.236Z,12.0026
2023-04-18T04:09:56.595Z,12.1904
2023-04-18T04:10:59.032Z,12.3054
2023-04-18T04:12:01.270Z,12.2239
2023-04-18T04:13:03.602Z,11.6857
2023-04-18T04:14:05.943Z,10.7762
2023-04-18T04:15:08.297Z,10.6168
2023-04-18T04:16:10.668Z,11.1792
2023-04-18T04:17:12.990Z,10.9181
2023-04-18T04:18:15.333Z,10.9142
2023-04-18T04:19:17.658Z,11.2301
2023-04-18T04:20:20.005Z,10.4592
2023-04-18T04:21:22.335Z,9.8159
2023-04-18T04:22:24.669Z,10.4003
2023-04-18T04:23:27.000Z,10.7521
2023-04-18T04:24:29.459Z,11.1822
2023-04-18T04:25:31.677Z,10.9703
2023-04-18T04:26:34.024Z,10.6053
2023-04-18T04:27:36.344Z,10.4613
2023-04-18T04:28:38.688Z,10.3119
2023-04-18T04:29:41.029Z,10.7423
2023-04-18T04:30:43.424Z,10.6642
2023-04-18T04:31:45.708Z,10.9961
2023-04-18T04:32:48.114Z,11.5070
2023-04-18T04:33:50.372Z,11.8098
2023-04-18T04:34:52.722Z,11.9174
2023-04-18T04:35:55.118Z,11.4733
2023-04-18T04:36:57.454Z,10.5531
2023-04-18T04:37:59.735Z,10.3353
2023-04-18T04:39:02.973Z,11.0461
2023-04-18T04:40:04.607Z,11.0318
2023-04-18T04:41:06.759Z,11.4112
2023-04-18T04:42:09.081Z,11.5475
2023-04-18T04:43:11.419Z,11.1048
2023-04-18T04:44:13.999Z,10.7731
2023-04-18T04:45:16.144Z,10.5235
2023-04-18T04:46:18.537Z,10.5085
2023-04-18T04:47:20.767Z,11.1118
2023-04-18T04:48:23.104Z,11.5212
2023-04-18T04:49:25.452Z,11.5698
2023-04-18T04:50:27.782Z,10.8976
2023-04-18T04:51:30.116Z,11.2320
2023-04-18T04:52:32.459Z,11.5787
2023-04-18T04:53:34.799Z,11.5247
2023-04-18T04:54:37.200Z,11.3603
2023-04-18T04:55:39.481Z,10.8591
2023-04-18T04:56:41.836Z,11.2511
2023-04-18T04:57:44.160Z,11.3147
2023-04-18T04:58:46.495Z,11.7270
2023-04-18T04:59:48.849Z,11.9745
2023-04-18T05:00:51.378Z,12.1076
2023-04-18T05:01:53.641Z,12.1813
2023-04-18T05:02:55.991Z,12.2134
2023-04-18T05:03:58.316Z,12.1951
2023-04-18T05:05:00.564Z,12.2315
2023-04-18T05:06:03.453Z,12.3194
2023-04-18T05:07:05.215Z,12.4034
2023-04-18T05:08:07.550Z,12.3603
2023-04-18T05:09:09.895Z,12.3868
2023-04-18T05:10:12.251Z,11.9885
2023-04-18T05:11:14.589Z,12.1596
2023-04-18T05:12:17.028Z,12.3707
2023-04-18T05:13:19.901Z,12.4554
2023-04-18T05:14:21.595Z,12.4813
2023-04-18T05:15:23.929Z,12.5217
2023-04-18T05:16:26.300Z,12.5336
2023-04-18T05:17:28.665Z,12.5710
2023-04-18T05:18:32.551Z,12.2485
2023-04-18T05:19:33.285Z,12.2717
2023-04-18T05:20:35.622Z,12.4465
2023-04-18T05:21:37.962Z,12.5369
2023-04-18T05:22:40.303Z,12.5634
2023-04-18T05:23:42.641Z,12.1707
2023-04-18T05:24:44.987Z,11.7658
2023-04-18T05:25:47.326Z,11.9936
2023-04-18T05:26:49.686Z,11.5409
2023-04-18T05:27:52.038Z,11.2829
2023-04-18T05:28:54.358Z,11.8829
2023-04-18T05:29:56.689Z,12.1834
2023-04-18T05:30:59.063Z,11.9408
2023-04-18T05:32:01.401Z,11.8231
2023-04-18T05:33:03.724Z,11.4920
2023-04-18T05:34:06.027Z,10.8618
2023-04-18T05:35:08.359Z,11.4754
2023-04-18T05:36:10.696Z,11.9367
2023-04-18T05:37:13.057Z,11.2207
2023-04-18T05:38:15.374Z,10.5539
2023-04-18T05:39:17.719Z,10.4964
2023-04-18T05:40:20.057Z,11.1079
2023-04-18T05:41:22.400Z,11.1315
2023-04-18T05:42:24.749Z,10.6776
2023-04-18T05:43:27.085Z,10.9399
2023-04-18T05:44:29.410Z,11.2463
2023-04-18T05:45:31.753Z,11.7399
2023-04-18T05:46:34.136Z,12.0811
2023-04-18T05:47:36.462Z,12.2873
2023-04-18T05:48:38.770Z,12.4521
2023-04-18T05:49:41.103Z,12.4983
2023-04-18T05:50:43.448Z,12.3925
2023-04-18T05:51:45.780Z,11.9987
2023-04-18T05:52:48.133Z,12.1579
2023-04-18T05:53:50.453Z,11.9833
2023-04-18T05:54:52.800Z,12.2914
2023-04-18T05:55:55.158Z,11.6923
2023-04-18T05:56:57.472Z,11.9737
2023-04-18T05:57:59.805Z,12.0776
2023-04-18T05:59:02.345Z,12.3089
2023-04-18T06:00:04.508Z,12.3681
2023-04-18T06:01:06.833Z,12.5240
2023-04-18T06:02:09.233Z,12.6593
2023-04-18T06:03:11.829Z,12.7185
2023-04-18T06:04:14.351Z,12.8042
2023-04-18T06:05:16.367Z,12.8149
2023-04-18T06:06:18.518Z,12.7637
2023-04-18T06:07:20.854Z,12.6719
2023-04-18T06:08:23.187Z,12.3925
2023-04-18T06:09:25.534Z,12.5667
2023-04-18T06:10:27.884Z,12.7419
2023-04-18T06:11:30.215Z,12.6098
2023-04-18T06:12:32.543Z,12.3257
2023-04-18T06:13:34.890Z,11.4349
2023-04-18T06:14:37.254Z,11.5335
2023-04-18T06:15:39.571Z,12.1891
2023-04-18T06:16:41.950Z,12.5583
2023-04-18T06:17:44.283Z,12.7477
2023-04-18T06:18:46.567Z,12.8729
2023-04-18T06:19:48.932Z,12.8545
2023-04-18T06:20:51.257Z,12.7119
2023-04-18T06:21:53.604Z,12.8386
2023-04-18T06:22:55.928Z,12.8955
2023-04-18T06:23:58.277Z,12.6889
2023-04-18T06:25:00.612Z,12.4738
2023-04-18T06:26:02.971Z,12.6439
2023-04-18T06:27:05.295Z,12.7616
2023-04-18T06:28:07.644Z,12.7648
2023-04-18T06:29:09.965Z,12.8575
2023-04-18T06:30:12.300Z,12.2278
2023-04-18T06:31:14.688Z,12.0456
2023-04-18T06:32:16.981Z,11.5068
2023-04-18T06:33:19.334Z,11.6919
2023-04-18T06:34:21.664Z,11.6781
2023-04-18T06:35:26.361Z,11.3877
2023-04-18T06:36:26.357Z,11.8240
2023-04-18T06:37:28.689Z,11.7535
2023-04-18T06:38:31.028Z,12.3015
2023-04-18T06:39:33.364Z,12.4699
2023-04-18T06:40:35.752Z,11.8607
2023-04-18T06:41:38.047Z,11.3114
2023-04-18T06:42:40.390Z,11.0878
2023-04-18T06:43:52.064Z,10.8809
2023-04-18T06:44:45.074Z,10.8763
2023-04-18T06:45:47.539Z,11.5113
2023-04-18T06:46:49.748Z,11.8901
2023-04-18T06:47:52.091Z,11.9108
2023-04-18T06:48:54.415Z,12.1612
2023-04-18T06:49:56.750Z,12.3605
2023-04-18T06:50:59.089Z,12.3880
2023-04-18T06:52:01.424Z,12.2345
2023-04-18T06:53:03.761Z,11.6267
2023-04-18T06:54:06.095Z,11.1923
2023-04-18T06:55:08.432Z,11.3527
2023-04-18T06:56:10.766Z,11.7044
2023-04-18T06:57:13.105Z,11.4641
2023-04-18T06:58:15.438Z,12.1709
2023-04-18T06:59:17.772Z,12.5217
2023-04-18T07:00:20.107Z,12.5369
2023-04-18T07:01:22.606Z,12.4794
2023-04-18T07:02:24.922Z,12.3693
2023-04-18T07:03:27.316Z,12.1399
2023-04-18T07:04:29.524Z,11.9055
2023-04-18T07:05:31.796Z,12.3545
2023-04-18T07:06:34.140Z,11.9657
2023-04-18T07:07:36.485Z,12.3412
2023-04-18T07:08:38.805Z,12.6782
2023-04-18T07:09:41.188Z,12.7762
2023-04-18T07:10:43.487Z,12.4287
2023-04-18T07:11:45.847Z,12.6998
2023-04-18T07:12:48.160Z,12.8076
2023-04-18T07:13:50.494Z,12.2569
2023-04-18T07:14:52.826Z,12.2148
2023-04-18T07:15:55.164Z,12.3490
2023-04-18T07:16:57.667Z,12.6636
2023-04-18T07:17:59.895Z,12.9183
2023-04-18T07:19:02.192Z,12.6729
2023-04-18T07:20:04.519Z,12.1454
2023-04-18T07:21:06.852Z,11.7046
2023-04-18T07:22:09.189Z,11.8702
2023-04-18T07:23:11.524Z,12.3672
2023-04-18T07:24:14.273Z,12.1694
2023-04-18T07:25:16.220Z,12.0678
2023-04-18T07:26:18.546Z,12.5340
2023-04-18T07:27:20.880Z,12.8119
2023-04-18T07:28:23.235Z,13.0658
2023-04-18T07:29:25.564Z,13.2254
2023-04-18T07:30:27.960Z,12.8280
2023-04-18T07:31:30.357Z,12.8091
2023-04-18T07:32:32.640Z,13.1866
2023-04-18T07:33:34.929Z,13.4136
2023-04-18T07:34:37.272Z,13.4294
2023-04-18T07:35:39.592Z,12.5837
2023-04-18T07:36:41.926Z,12.2869
2023-04-18T07:37:44.269Z,12.5322
2023-04-18T07:38:46.608Z,12.7717
2023-04-18T07:39:48.948Z,12.7793
2023-04-18T07:40:51.279Z,13.1215
2023-04-18T07:41:53.618Z,13.1622
2023-04-18T07:42:55.955Z,12.7941
2023-04-18T07:43:58.303Z,12.9362
2023-04-18T07:45:00.645Z,12.3338
2023-04-18T07:46:03.091Z,12.5324
2023-04-18T07:47:05.313Z,12.4851
2023-04-18T07:48:07.800Z,12.7963
2023-04-18T07:49:09.984Z,13.2088
2023-04-18T07:50:12.332Z,13.0574
2023-04-18T07:51:14.666Z,13.2642
2023-04-18T07:52:17.077Z,13.6155
2023-04-18T07:53:19.430Z,13.6208
2023-04-18T07:54:21.764Z,13.1277
2023-04-18T07:55:24.095Z,12.9015
2023-04-18T07:56:26.442Z,12.6380
2023-04-18T07:57:28.761Z,12.2664
2023-04-18T07:58:31.105Z,12.3798
2023-04-18T07:59:33.441Z,12.8699
2023-04-18T08:00:35.767Z,12.9321
2023-04-18T08:01:38.114Z,13.3561
2023-04-18T08:02:40.571Z,13.5327
2023-04-18T08:03:43.097Z,13.5114
2023-04-18T08:04:45.312Z,13.1397
2023-04-18T08:05:47.467Z,12.7372
2023-04-18T08:06:49.795Z,13.0319
2023-04-18T08:07:52.136Z,13.3528
2023-04-18T08:08:54.476Z,13.2466
2023-04-18T08:09:56.916Z,13.4068
2023-04-18T08:10:59.152Z,13.7114
2023-04-18T08:12:01.492Z,13.8369
2023-04-18T08:13:03.823Z,13.9125
2023-04-18T08:14:06.174Z,13.9203
2023-04-18T08:15:08.542Z,13.3758
2023-04-18T08:16:10.904Z,13.0280
2023-04-18T08:17:13.191Z,13.2620
2023-04-18T08:18:15.527Z,13.1480
2023-04-18T08:19:17.910Z,13.1948
2023-04-18T08:20:20.217Z,13.1780
2023-04-18T08:21:22.549Z,13.3906
2023-04-18T08:22:24.887Z,13.1642
2023-04-18T08:23:27.221Z,12.8015
2023-04-18T08:24:29.572Z,12.6721
2023-04-18T08:25:31.914Z,13.0644
2023-04-18T08:26:34.246Z,12.6727
2023-04-18T08:27:36.591Z,12.7776
2023-04-18T08:28:38.912Z,12.8434
2023-04-18T08:29:41.255Z,13.1246
2023-04-18T08:30:43.595Z,13.5148
2023-04-18T08:31:45.988Z,13.7192
2023-04-18T08:32:48.312Z,13.8447
2023-04-18T08:33:50.617Z,13.9507
2023-04-18T08:34:52.967Z,13.3838
2023-04-18T08:35:55.296Z,13.5795
2023-04-18T08:36:57.662Z,13.8566
2023-04-18T08:37:59.980Z,13.9949
2023-04-18T08:39:02.326Z,14.0308
2023-04-18T08:40:04.665Z,13.3402
2023-04-18T08:41:06.996Z,13.4672
2023-04-18T08:42:09.346Z,13.4616
2023-04-18T08:43:11.690Z,13.6925
2023-04-18T08:44:14.138Z,13.3836
2023-04-18T08:45:16.403Z,13.4148
2023-04-18T08:46:18.727Z,13.2723
2023-04-18T08:47:21.072Z,13.5095
2023-04-18T08:48:23.398Z,12.7115
2023-04-18T08:49:25.747Z,12.5887
2023-04-18T08:50:28.072Z,12.9598
2023-04-18T08:51:30.444Z,12.5486
2023-04-18T08:52:32.754Z,12.3681
2023-04-18T08:53:35.121Z,12.4385
2023-04-18T08:54:37.453Z,12.9463
2023-04-18T08:55:39.778Z,12.8251
2023-04-18T08:56:42.147Z,12.8643
2023-04-18T08:57:44.461Z,12.7807
2023-04-18T08:58:46.813Z,12.4761
2023-04-18T08:59:50.969Z,12.8403
2023-04-18T09:00:51.536Z,13.4319
2023-04-18T09:01:53.851Z,13.7663
2023-04-18T09:02:56.442Z,13.8663
2023-04-18T09:03:58.580Z,13.4250
2023-04-18T09:05:00.882Z,13.3359
2023-04-18T09:06:03.254Z,13.4579
2023-04-18T09:07:05.539Z,13.6728
2023-04-18T09:08:07.886Z,13.4298
2023-04-18T09:09:10.232Z,13.2550
2023-04-18T09:10:12.681Z,13.4140
2023-04-18T09:11:14.923Z,13.9478
2023-04-18T09:12:17.257Z,13.6258
2023-04-18T09:13:19.627Z,13.1129
2023-04-18T09:14:21.940Z,12.7524
2023-04-18T09:15:24.302Z,13.3283
2023-04-18T09:16:26.727Z,13.7408
2023-04-18T09:17:29.013Z,13.7607
2023-04-18T09:18:31.313Z,13.7137
2023-04-18T09:19:33.652Z,13.9657
2023-04-18T09:20:36.067Z,13.8571
2023-04-18T09:21:38.357Z,14.2859
2023-04-18T09:22:40.677Z,14.4856
2023-04-18T09:23:43.016Z,14.1070
2023-04-18T09:24:45.359Z,13.9016
2023-04-18T09:25:47.700Z,14.3543
2023-04-18T09:26:50.057Z,14.2451
2023-04-18T09:27:52.380Z,13.8955
2023-04-18T09:28:54.707Z,14.1845
2023-04-18T09:29:57.993Z,14.2393
2023-04-18T09:30:59.462Z,13.9197
2023-04-18T09:32:01.776Z,13.7732
2023-04-18T09:33:04.130Z,14.2338
2023-04-18T09:34:06.407Z,14.0199
2023-04-18T09:35:08.760Z,13.7116
2023-04-18T09:36:11.092Z,14.0395
2023-04-18T09:37:13.685Z,14.4145
2023-04-18T09:38:15.761Z,14.2619
2023-04-18T09:39:18.115Z,14.6064
2023-04-18T09:40:20.451Z,14.9048
2023-04-18T09:41:22.781Z,15.1667
2023-04-18T09:42:27.401Z,15.2070
2023-04-18T09:43:27.459Z,14.8476
2023-04-18T09:44:29.804Z,15.0236
2023-04-18T09:45:32.133Z,14.5548
2023-04-18T09:46:34.645Z,14.5117
2023-04-18T09:47:36.969Z,14.9890
2023-04-18T09:48:39.152Z,14.4829
2023-04-18T09:49:41.496Z,14.4827
2023-04-18T09:50:43.820Z,14.7914
2023-04-18T09:51:46.256Z,14.8748
2023-04-18T09:52:48.515Z,14.8245
2023-04-18T09:53:50.857Z,14.5657
2023-04-18T09:54:53.182Z,14.2508
2023-04-18T09:55:57.631Z,14.1528
2023-04-18T09:56:57.862Z,14.0051
2023-04-18T09:58:00.201Z,14.1146
2023-04-18T09:59:02.534Z,14.5778
2023-04-18T10:00:04.865Z,14.8812
2023-04-18T10:01:07.208Z,15.0338
2023-04-18T10:02:09.641Z,15.5291
2023-04-18T10:03:12.083Z,15.6400
2023-04-18T10:04:14.596Z,15.1182
2023-04-18T10:05:17.613Z,15.3020
2023-04-18T10:06:18.913Z,15.5132
2023-04-18T10:07:21.240Z,15.5667
2023-04-18T10:08:23.585Z,15.2409
2023-04-18T10:09:25.921Z,14.8633
2023-04-18T10:10:28.264Z,15.2781
2023-04-18T10:11:30.587Z,15.7548
2023-04-18T10:12:32.925Z,16.0991
2023-04-18T10:13:35.268Z,16.1535
2023-04-18T10:14:37.611Z,16.2196
2023-04-18T10:15:41.148Z,16.4824
2023-04-18T10:16:42.351Z,15.8632
2023-04-18T10:17:56.069Z,15.4342
2023-04-18T10:18:46.979Z,15.2220
2023-04-18T10:19:49.302Z,15.4820
2023-04-18T10:20:51.646Z,15.3035
2023-04-18T10:21:53.986Z,15.5420
2023-04-18T10:22:56.323Z,15.3894
2023-04-18T10:23:58.777Z,15.4420
2023-04-18T10:25:01.005Z,15.2004
2023-04-18T10:26:03.347Z,15.5588
2023-04-18T10:27:05.699Z,15.4915
2023-04-18T10:28:08.058Z,15.8037
2023-04-18T10:29:10.409Z,16.0255
2023-04-18T10:30:12.732Z,15.6279
2023-04-18T10:31:15.108Z,15.7990
2023-04-18T10:32:17.422Z,15.5576
2023-04-18T10:33:30.297Z,15.8193
2023-04-18T10:34:22.330Z,15.7034
2023-04-18T10:35:24.473Z,15.1465
2023-04-18T10:36:26.825Z,15.3004
2023-04-18T10:37:29.142Z,15.7497
2023-04-18T10:38:31.483Z,15.4243
2023-04-18T10:39:33.843Z,15.7653
2023-04-18T10:40:36.170Z,16.0518
2023-04-18T10:41:38.559Z,16.0549
2023-04-18T10:42:40.856Z,16.1085
2023-04-18T10:43:43.202Z,16.3770
2023-04-18T10:44:45.549Z,16.1605
2023-04-18T10:45:47.892Z,15.1869
2023-04-18T10:46:50.282Z,14.5836
2023-04-18T10:47:52.671Z,14.7869
2023-04-18T10:48:54.924Z,14.9702
2023-04-18T10:49:57.262Z,14.9225
2023-04-18T10:50:59.599Z,15.1632
2023-04-18T10:52:02.213Z,15.6162
2023-04-18T10:53:04.292Z,15.8307
2023-04-18T10:54:06.638Z,15.2433
2023-04-18T10:55:08.987Z,15.1597
2023-04-18T10:56:11.312Z,14.9630
2023-04-18T10:57:13.667Z,15.0375
2023-04-18T10:58:15.992Z,15.0180
2023-04-18T10:59:18.331Z,15.6445
2023-04-18T11:00:20.742Z,16.0459
2023-04-18T11:01:23.068Z,16.1303
2023-04-18T11:02:25.542Z,16.0804
2023-04-18T11:03:27.765Z,16.0781
2023-04-18T11:04:30.137Z,16.3195
2023-04-18T11:05:32.433Z,16.8014
2023-04-18T11:06:34.746Z,17.1620
2023-04-18T11:07:37.095Z,17.4075
2023-04-18T11:08:39.443Z,17.6577
2023-04-18T11:09:42.599Z,17.5702
2023-04-18T11:10:44.127Z,17.9449
2023-04-18T11:11:46.466Z,17.5837
2023-04-18T11:12:48.830Z,17.6045
2023-04-18T11:13:51.164Z,17.4925
2023-04-18T11:14:53.500Z,17.8713
2023-04-18T11:15:55.844Z,18.0958
2023-04-18T11:16:58.256Z,16.7241
2023-04-18T11:18:00.616Z,16.8513
2023-04-18T11:19:02.873Z,17.2652
2023-04-18T11:20:05.224Z,17.1419
2023-04-18T11:21:07.564Z,17.5055
2023-04-18T11:22:09.913Z,17.6396
2023-04-18T11:23:12.264Z,17.5963
2023-04-18T11:24:14.706Z,17.5077
2023-04-18T11:25:16.981Z,17.6595
2023-04-18T11:26:19.375Z,17.5753
2023-04-18T11:27:21.629Z,17.3748
2023-04-18T11:28:24.012Z,17.1458
2023-04-18T11:29:26.323Z,17.2009
2023-04-18T11:30:28.673Z,16.6175
2023-04-18T11:31:31.028Z,16.5234
2023-04-18T11:32:33.403Z,16.9897
2023-04-18T11:33:35.755Z,17.3391
2023-04-18T11:34:38.051Z,17.0476
2023-04-18T11:35:40.391Z,17.1939
2023-04-18T11:36:42.742Z,16.5179
2023-04-18T11:37:45.132Z,16.1021
2023-04-18T11:38:47.429Z,16.6989
2023-04-18T11:39:49.778Z,17.0491
2023-04-18T11:40:52.110Z,16.5849
2023-04-18T11:41:54.469Z,16.8876
2023-04-18T11:42:56.815Z,17.2489
2023-04-18T11:43:59.160Z,17.1390
2023-04-18T11:45:01.501Z,16.9601
2023-04-18T11:46:03.872Z,17.3675
2023-04-18T11:47:06.179Z,17.6127
2023-04-18T11:48:08.567Z,16.9583
2023-04-18T11:49:10.876Z,17.0563
2023-04-18T11:50:13.239Z,17.5365
2023-04-18T11:51:15.567Z,17.4211
2023-04-18T11:52:17.908Z,17.4186
2023-04-18T11:53:20.290Z,17.7066
2023-04-18T11:54:22.602Z,17.8621
2023-04-18T11:55:24.955Z,18.2020
2023-04-18T11:56:27.291Z,18.0665
2023-04-18T11:57:29.732Z,18.3468
2023-04-18T11:58:32.074Z,17.9368
2023-04-18T11:59:34.433Z,17.7169
2023-04-18T12:00:36.752Z,18.3978
2023-04-18T12:01:39.101Z,18.8817
2023-04-18T12:02:41.657Z,18.7560
2023-04-18T12:03:44.125Z,18.3546
2023-04-18T12:04:46.344Z,18.5366
2023-04-18T12:05:48.759Z,19.3295
2023-04-18T12:06:50.855Z,19.7612
2023-04-18T12:07:53.189Z,19.8159
2023-04-18T12:08:55.541Z,19.5764
2023-04-18T12:09:57.882Z,19.7450
2023-04-18T12:11:00.228Z,20.1936
2023-04-18T12:12:02.587Z,20.7277
2023-04-18T12:13:04.947Z,20.4241
2023-04-18T12:14:07.278Z,19.9517
2023-04-18T12:15:09.620Z,19.9843
2023-04-18T12:16:11.979Z,19.6781
2023-04-18T12:17:14.342Z,19.5746
2023-04-18T12:18:16.665Z,19.8993
2023-04-18T12:19:19.010Z,19.8323
2023-04-18T12:20:21.357Z,19.6218
2023-04-18T12:21:23.710Z,19.1717
2023-04-18T12:22:26.053Z,19.0526
2023-04-18T12:23:28.420Z,19.3320
2023-04-18T12:24:30.752Z,19.1531
2023-04-18T12:25:33.100Z,18.9820
2023-04-18T12:26:35.444Z,19.3930
2023-04-18T12:27:37.790Z,19.2030
2023-04-18T12:28:40.141Z,19.2042
2023-04-18T12:29:42.512Z,19.1623
2023-04-18T12:30:44.842Z,19.4833
2023-04-18T12:31:47.260Z,19.7578
2023-04-18T12:32:49.628Z,18.9957
2023-04-18T12:33:51.889Z,18.2131
2023-04-18T12:34:54.252Z,18.2887